sensor_id;sensor_type;location;lat;lon;timestamp;P1;durP1;ratioP1;P2;durP2;ratioP2
43160;SDS011;40968;52.342;5.528;2023-01-01T00:01:37;72.70;;;25.55;;
43160;SDS011;40968;52.342;5.528;2023-01-01T00:04:06;70.53;;;26.35;;
43160;SDS011;40968;52.342;5.528;2023-01-01T00:09:04;63.92;;;22.50;;
43160;SDS011;40968;52.342;5.528;2023-01-01T00:11:45;81.60;;;26.00;;
43160;SDS011;40968;52.342;5.528;2023-01-01T00:14:12;69.53;;;25.65;;
43160;SDS011;40968;52.342;5.528;2023-01-01T00:16:38;52.67;;;23.08;;
43160;SDS011;40968;52.342;5.528;2023-01-01T00:19:05;69.32;;;26.92;;
43160;SDS011;40968;52.342;5.528;2023-01-01T00:21:32;68.30;;;22.83;;
43160;SDS011;40968;52.342;5.528;2023-01-01T00:24:00;70.00;;;23.88;;
43160;SDS011;40968;52.342;5.528;2023-01-01T00:26:26;67.20;;;23.02;;
43160;SDS011;40968;52.342;5.528;2023-01-01T00:28:53;66.43;;;21.17;;
43160;SDS011;40968;52.342;5.528;2023-01-01T00:31:20;57.92;;;22.85;;
43160;SDS011;40968;52.342;5.528;2023-01-01T00:33:48;66.30;;;22.67;;
43160;SDS011;40968;52.342;5.528;2023-01-01T00:36:17;56.33;;;19.53;;
43160;SDS011;40968;52.342;5.528;2023-01-01T00:38:44;61.83;;;19.92;;
43160;SDS011;40968;52.342;5.528;2023-01-01T00:41:13;46.92;;;17.83;;
43160;SDS011;40968;52.342;5.528;2023-01-01T00:43:41;49.35;;;16.08;;
43160;SDS011;40968;52.342;5.528;2023-01-01T00:46:08;37.58;;;13.82;;
43160;SDS011;40968;52.342;5.528;2023-01-01T00:48:35;45.22;;;14.68;;
43160;SDS011;40968;52.342;5.528;2023-01-01T00:51:02;28.52;;;11.25;;
43160;SDS011;40968;52.342;5.528;2023-01-01T00:53:29;41.20;;;12.55;;
43160;SDS011;40968;52.342;5.528;2023-01-01T00:55:56;42.72;;;11.30;;
43160;SDS011;40968;52.342;5.528;2023-01-01T00:58:24;34.13;;;10.73;;
43160;SDS011;40968;52.342;5.528;2023-01-01T01:00:51;35.63;;;10.50;;
43160;SDS011;40968;52.342;5.528;2023-01-01T01:03:18;40.35;;;11.38;;
43160;SDS011;40968;52.342;5.528;2023-01-01T01:05:53;30.23;;;10.73;;
43160;SDS011;40968;52.342;5.528;2023-01-01T01:08:19;30.63;;;10.38;;
43160;SDS011;40968;52.342;5.528;2023-01-01T01:10:46;36.75;;;11.48;;
43160;SDS011;40968;52.342;5.528;2023-01-01T01:13:12;36.53;;;11.73;;
43160;SDS011;40968;52.342;5.528;2023-01-01T01:15:40;39.35;;;11.07;;
43160;SDS011;40968;52.342;5.528;2023-01-01T01:18:07;34.15;;;10.43;;
43160;SDS011;40968;52.342;5.528;2023-01-01T01:20:34;32.33;;;10.00;;
43160;SDS011;40968;52.342;5.528;2023-01-01T01:23:00;37.30;;;11.57;;
43160;SDS011;40968;52.342;5.528;2023-01-01T01:25:27;37.65;;;9.52;;
43160;SDS011;40968;52.342;5.528;2023-01-01T01:27:53;41.72;;;9.70;;
43160;SDS011;40968;52.342;5.528;2023-01-01T01:30:20;37.25;;;9.25;;
43160;SDS011;40968;52.342;5.528;2023-01-01T01:32:48;26.05;;;7.65;;
43160;SDS011;40968;52.342;5.528;2023-01-01T01:35:14;28.83;;;7.55;;
43160;SDS011;40968;52.342;5.528;2023-01-01T01:37:41;32.03;;;8.02;;
43160;SDS011;40968;52.342;5.528;2023-01-01T01:40:08;22.98;;;7.28;;
43160;SDS011;40968;52.342;5.528;2023-01-01T01:42:36;26.77;;;7.20;;
43160;SDS011;40968;52.342;5.528;2023-01-01T01:45:04;21.58;;;7.47;;
43160;SDS011;40968;52.342;5.528;2023-01-01T01:47:32;25.98;;;7.55;;
43160;SDS011;40968;52.342;5.528;2023-01-01T01:50:07;28.67;;;6.88;;
43160;SDS011;40968;52.342;5.528;2023-01-01T01:52:37;22.55;;;6.57;;
43160;SDS011;40968;52.342;5.528;2023-01-01T01:55:07;17.38;;;5.50;;
43160;SDS011;40968;52.342;5.528;2023-01-01T01:57:35;17.77;;;5.72;;
43160;SDS011;40968;52.342;5.528;2023-01-01T02:00:03;15.07;;;4.97;;
43160;SDS011;40968;52.342;5.528;2023-01-01T02:02:33;16.67;;;5.40;;
43160;SDS011;40968;52.342;5.528;2023-01-01T02:05:02;19.02;;;5.20;;
43160;SDS011;40968;52.342;5.528;2023-01-01T02:07:31;20.75;;;4.93;;
43160;SDS011;40968;52.342;5.528;2023-01-01T02:09:59;14.20;;;4.90;;
43160;SDS011;40968;52.342;5.528;2023-01-01T02:12:27;16.77;;;4.70;;
43160;SDS011;40968;52.342;5.528;2023-01-01T02:14:54;11.20;;;4.45;;
43160;SDS011;40968;52.342;5.528;2023-01-01T02:17:21;13.80;;;4.40;;
43160;SDS011;40968;52.342;5.528;2023-01-01T02:19:57;17.65;;;4.50;;
43160;SDS011;40968;52.342;5.528;2023-01-01T02:22:50;12.85;;;4.03;;
43160;SDS011;40968;52.342;5.528;2023-01-01T02:25:36;13.10;;;3.40;;
43160;SDS011;40968;52.342;5.528;2023-01-01T02:28:14;14.60;;;3.80;;
43160;SDS011;40968;52.342;5.528;2023-01-01T02:30:50;13.00;;;3.45;;
43160;SDS011;40968;52.342;5.528;2023-01-01T02:33:20;14.23;;;3.58;;
43160;SDS011;40968;52.342;5.528;2023-01-01T02:35:51;18.70;;;3.75;;
43160;SDS011;40968;52.342;5.528;2023-01-01T02:38:22;18.08;;;3.67;;
43160;SDS011;40968;52.342;5.528;2023-01-01T02:40:53;14.30;;;4.07;;
43160;SDS011;40968;52.342;5.528;2023-01-01T02:43:23;10.82;;;3.35;;
43160;SDS011;40968;52.342;5.528;2023-01-01T02:45:51;9.02;;;3.55;;
43160;SDS011;40968;52.342;5.528;2023-01-01T02:48:37;17.73;;;4.05;;
43160;SDS011;40968;52.342;5.528;2023-01-01T02:51:09;12.15;;;3.25;;
43160;SDS011;40968;52.342;5.528;2023-01-01T02:53:44;19.05;;;3.90;;
43160;SDS011;40968;52.342;5.528;2023-01-01T02:56:18;20.10;;;4.18;;
43160;SDS011;40968;52.342;5.528;2023-01-01T02:58:56;12.70;;;3.15;;
43160;SDS011;40968;52.342;5.528;2023-01-01T03:01:51;12.75;;;3.33;;
43160;SDS011;40968;52.342;5.528;2023-01-01T03:04:24;16.83;;;3.33;;
43160;SDS011;40968;52.342;5.528;2023-01-01T03:07:00;10.00;;;3.13;;
43160;SDS011;40968;52.342;5.528;2023-01-01T03:09:34;15.05;;;3.40;;
43160;SDS011;40968;52.342;5.528;2023-01-01T03:12:08;11.98;;;3.40;;
43160;SDS011;40968;52.342;5.528;2023-01-01T03:14:44;19.23;;;3.00;;
43160;SDS011;40968;52.342;5.528;2023-01-01T03:17:19;16.83;;;3.30;;
43160;SDS011;40968;52.342;5.528;2023-01-01T03:19:52;10.95;;;2.50;;
43160;SDS011;40968;52.342;5.528;2023-01-01T03:22:21;15.32;;;2.78;;
43160;SDS011;40968;52.342;5.528;2023-01-01T03:24:53;9.38;;;3.20;;
43160;SDS011;40968;52.342;5.528;2023-01-01T03:29:54;10.68;;;3.28;;
43160;SDS011;40968;52.342;5.528;2023-01-01T03:32:27;9.18;;;2.90;;
43160;SDS011;40968;52.342;5.528;2023-01-01T03:35:12;11.18;;;2.60;;
43160;SDS011;40968;52.342;5.528;2023-01-01T03:37:40;10.27;;;2.85;;
43160;SDS011;40968;52.342;5.528;2023-01-01T03:40:10;9.82;;;2.90;;
43160;SDS011;40968;52.342;5.528;2023-01-01T03:42:39;12.20;;;2.70;;
43160;SDS011;40968;52.342;5.528;2023-01-01T03:45:11;13.65;;;2.75;;
43160;SDS011;40968;52.342;5.528;2023-01-01T03:47:44;16.42;;;2.88;;
43160;SDS011;40968;52.342;5.528;2023-01-01T03:50:11;10.82;;;2.40;;
43160;SDS011;40968;52.342;5.528;2023-01-01T03:52:40;11.02;;;2.40;;
43160;SDS011;40968;52.342;5.528;2023-01-01T03:55:15;15.10;;;2.75;;
43160;SDS011;40968;52.342;5.528;2023-01-01T03:57:48;13.05;;;2.92;;
43160;SDS011;40968;52.342;5.528;2023-01-01T04:00:21;11.13;;;2.78;;
43160;SDS011;40968;52.342;5.528;2023-01-01T04:02:53;10.07;;;3.15;;
43160;SDS011;40968;52.342;5.528;2023-01-01T04:05:22;9.35;;;2.50;;
43160;SDS011;40968;52.342;5.528;2023-01-01T04:07:50;12.90;;;3.22;;
43160;SDS011;40968;52.342;5.528;2023-01-01T04:10:19;12.68;;;2.55;;
43160;SDS011;40968;52.342;5.528;2023-01-01T04:12:46;9.00;;;2.58;;
43160;SDS011;40968;52.342;5.528;2023-01-01T04:15:15;16.92;;;2.55;;
43160;SDS011;40968;52.342;5.528;2023-01-01T04:17:42;11.60;;;2.88;;
43160;SDS011;40968;52.342;5.528;2023-01-01T04:20:10;9.52;;;2.45;;
43160;SDS011;40968;52.342;5.528;2023-01-01T04:22:37;11.90;;;2.70;;
43160;SDS011;40968;52.342;5.528;2023-01-01T04:25:04;13.68;;;2.55;;
43160;SDS011;40968;52.342;5.528;2023-01-01T04:27:31;11.85;;;2.40;;
43160;SDS011;40968;52.342;5.528;2023-01-01T04:29:58;6.32;;;1.92;;
43160;SDS011;40968;52.342;5.528;2023-01-01T04:32:25;9.02;;;2.22;;
43160;SDS011;40968;52.342;5.528;2023-01-01T04:34:51;6.78;;;1.88;;
43160;SDS011;40968;52.342;5.528;2023-01-01T04:37:19;4.90;;;1.92;;
43160;SDS011;40968;52.342;5.528;2023-01-01T04:39:46;4.10;;;1.52;;
43160;SDS011;40968;52.342;5.528;2023-01-01T04:42:12;7.72;;;2.03;;
43160;SDS011;40968;52.342;5.528;2023-01-01T04:44:39;6.28;;;1.80;;
43160;SDS011;40968;52.342;5.528;2023-01-01T04:47:06;8.50;;;1.77;;
43160;SDS011;40968;52.342;5.528;2023-01-01T04:49:33;6.97;;;1.55;;
43160;SDS011;40968;52.342;5.528;2023-01-01T04:51:59;7.15;;;1.65;;
43160;SDS011;40968;52.342;5.528;2023-01-01T04:54:27;4.82;;;1.80;;
43160;SDS011;40968;52.342;5.528;2023-01-01T04:56:54;6.32;;;2.00;;
43160;SDS011;40968;52.342;5.528;2023-01-01T04:59:20;6.82;;;1.88;;
43160;SDS011;40968;52.342;5.528;2023-01-01T05:01:47;9.20;;;2.50;;
43160;SDS011;40968;52.342;5.528;2023-01-01T05:04:14;10.27;;;1.65;;
43160;SDS011;40968;52.342;5.528;2023-01-01T05:06:41;11.10;;;2.25;;
43160;SDS011;40968;52.342;5.528;2023-01-01T05:09:08;9.45;;;2.25;;
43160;SDS011;40968;52.342;5.528;2023-01-01T05:11:36;11.50;;;2.25;;
43160;SDS011;40968;52.342;5.528;2023-01-01T05:14:03;5.50;;;2.10;;
43160;SDS011;40968;52.342;5.528;2023-01-01T05:16:31;9.60;;;2.30;;
43160;SDS011;40968;52.342;5.528;2023-01-01T05:18:59;12.10;;;2.33;;
43160;SDS011;40968;52.342;5.528;2023-01-01T05:21:26;10.57;;;2.70;;
43160;SDS011;40968;52.342;5.528;2023-01-01T05:23:56;10.55;;;2.67;;
43160;SDS011;40968;52.342;5.528;2023-01-01T05:26:25;9.45;;;2.63;;
43160;SDS011;40968;52.342;5.528;2023-01-01T05:28:54;11.30;;;2.28;;
43160;SDS011;40968;52.342;5.528;2023-01-01T05:31:22;8.05;;;2.00;;
43160;SDS011;40968;52.342;5.528;2023-01-01T05:33:49;12.43;;;2.22;;
43160;SDS011;40968;52.342;5.528;2023-01-01T05:36:17;11.80;;;2.38;;
43160;SDS011;40968;52.342;5.528;2023-01-01T05:38:45;19.48;;;3.22;;
43160;SDS011;40968;52.342;5.528;2023-01-01T05:41:13;19.33;;;2.90;;
43160;SDS011;40968;52.342;5.528;2023-01-01T05:43:40;13.60;;;2.35;;
43160;SDS011;40968;52.342;5.528;2023-01-01T05:46:10;11.38;;;2.60;;
43160;SDS011;40968;52.342;5.528;2023-01-01T05:48:39;9.10;;;2.50;;
43160;SDS011;40968;52.342;5.528;2023-01-01T05:51:06;17.98;;;2.88;;
43160;SDS011;40968;52.342;5.528;2023-01-01T05:53:34;9.00;;;2.00;;
43160;SDS011;40968;52.342;5.528;2023-01-01T05:56:01;11.45;;;2.15;;
43160;SDS011;40968;52.342;5.528;2023-01-01T05:58:29;14.05;;;2.92;;
43160;SDS011;40968;52.342;5.528;2023-01-01T06:01:00;9.75;;;2.00;;
43160;SDS011;40968;52.342;5.528;2023-01-01T06:03:32;9.70;;;2.30;;
43160;SDS011;40968;52.342;5.528;2023-01-01T06:06:01;8.40;;;2.15;;
43160;SDS011;40968;52.342;5.528;2023-01-01T06:08:29;17.33;;;3.05;;
43160;SDS011;40968;52.342;5.528;2023-01-01T06:10:56;13.80;;;2.33;;
43160;SDS011;40968;52.342;5.528;2023-01-01T06:13:24;8.52;;;2.17;;
43160;SDS011;40968;52.342;5.528;2023-01-01T06:15:52;8.00;;;1.88;;
43160;SDS011;40968;52.342;5.528;2023-01-01T06:18:19;19.75;;;2.60;;
43160;SDS011;40968;52.342;5.528;2023-01-01T06:20:47;12.38;;;1.98;;
43160;SDS011;40968;52.342;5.528;2023-01-01T06:23:14;12.98;;;2.10;;
43160;SDS011;40968;52.342;5.528;2023-01-01T06:25:40;12.55;;;2.45;;
43160;SDS011;40968;52.342;5.528;2023-01-01T06:28:07;9.00;;;2.05;;
43160;SDS011;40968;52.342;5.528;2023-01-01T06:30:34;7.00;;;2.22;;
43160;SDS011;40968;52.342;5.528;2023-01-01T06:33:01;21.67;;;2.55;;
43160;SDS011;40968;52.342;5.528;2023-01-01T06:35:28;12.65;;;1.75;;
43160;SDS011;40968;52.342;5.528;2023-01-01T06:37:56;8.93;;;1.98;;
43160;SDS011;40968;52.342;5.528;2023-01-01T06:40:24;14.43;;;2.05;;
43160;SDS011;40968;52.342;5.528;2023-01-01T06:42:50;7.45;;;1.95;;
43160;SDS011;40968;52.342;5.528;2023-01-01T06:45:17;14.88;;;1.85;;
43160;SDS011;40968;52.342;5.528;2023-01-01T06:47:43;7.28;;;1.98;;
43160;SDS011;40968;52.342;5.528;2023-01-01T06:50:10;9.57;;;2.17;;
43160;SDS011;40968;52.342;5.528;2023-01-01T06:52:37;14.75;;;2.05;;
43160;SDS011;40968;52.342;5.528;2023-01-01T06:55:05;6.43;;;1.85;;
43160;SDS011;40968;52.342;5.528;2023-01-01T06:57:32;13.15;;;2.50;;
43160;SDS011;40968;52.342;5.528;2023-01-01T06:59:59;18.08;;;2.63;;
43160;SDS011;40968;52.342;5.528;2023-01-01T07:02:25;16.05;;;1.90;;
43160;SDS011;40968;52.342;5.528;2023-01-01T07:04:52;8.65;;;2.22;;
43160;SDS011;40968;52.342;5.528;2023-01-01T07:07:18;15.57;;;2.08;;
43160;SDS011;40968;52.342;5.528;2023-01-01T07:09:45;9.27;;;2.08;;
43160;SDS011;40968;52.342;5.528;2023-01-01T07:12:13;8.07;;;2.25;;
43160;SDS011;40968;52.342;5.528;2023-01-01T07:14:39;10.70;;;2.30;;
43160;SDS011;40968;52.342;5.528;2023-01-01T07:17:06;14.82;;;2.85;;
43160;SDS011;40968;52.342;5.528;2023-01-01T07:19:32;17.02;;;2.38;;
43160;SDS011;40968;52.342;5.528;2023-01-01T07:21:59;8.07;;;2.00;;
43160;SDS011;40968;52.342;5.528;2023-01-01T07:24:26;8.50;;;1.98;;
43160;SDS011;40968;52.342;5.528;2023-01-01T07:26:52;9.57;;;2.20;;
43160;SDS011;40968;52.342;5.528;2023-01-01T07:29:20;11.27;;;2.17;;
43160;SDS011;40968;52.342;5.528;2023-01-01T07:31:47;7.00;;;1.63;;
43160;SDS011;40968;52.342;5.528;2023-01-01T07:34:17;10.77;;;2.50;;
43160;SDS011;40968;52.342;5.528;2023-01-01T07:36:44;16.63;;;2.60;;
43160;SDS011;40968;52.342;5.528;2023-01-01T07:39:11;14.57;;;2.20;;
43160;SDS011;40968;52.342;5.528;2023-01-01T07:41:37;7.15;;;1.70;;
43160;SDS011;40968;52.342;5.528;2023-01-01T07:44:04;15.02;;;3.00;;
43160;SDS011;40968;52.342;5.528;2023-01-01T07:46:33;19.63;;;2.97;;
43160;SDS011;40968;52.342;5.528;2023-01-01T07:49:01;16.58;;;1.95;;
43160;SDS011;40968;52.342;5.528;2023-01-01T07:51:28;8.75;;;1.90;;
43160;SDS011;40968;52.342;5.528;2023-01-01T07:53:54;13.07;;;1.80;;
43160;SDS011;40968;52.342;5.528;2023-01-01T07:56:21;16.67;;;2.22;;
43160;SDS011;40968;52.342;5.528;2023-01-01T07:58:47;15.90;;;2.65;;
43160;SDS011;40968;52.342;5.528;2023-01-01T08:01:14;9.02;;;2.40;;
43160;SDS011;40968;52.342;5.528;2023-01-01T08:03:42;13.00;;;2.22;;
43160;SDS011;40968;52.342;5.528;2023-01-01T08:06:09;7.30;;;2.53;;
43160;SDS011;40968;52.342;5.528;2023-01-01T08:08:36;15.27;;;2.15;;
43160;SDS011;40968;52.342;5.528;2023-01-01T08:11:03;10.70;;;2.17;;
43160;SDS011;40968;52.342;5.528;2023-01-01T08:13:31;15.00;;;2.50;;
43160;SDS011;40968;52.342;5.528;2023-01-01T08:15:58;14.68;;;2.60;;
43160;SDS011;40968;52.342;5.528;2023-01-01T08:18:24;14.13;;;2.58;;
43160;SDS011;40968;52.342;5.528;2023-01-01T08:20:52;8.52;;;1.90;;
43160;SDS011;40968;52.342;5.528;2023-01-01T08:23:21;19.33;;;2.40;;
43160;SDS011;40968;52.342;5.528;2023-01-01T08:25:47;17.27;;;2.67;;
43160;SDS011;40968;52.342;5.528;2023-01-01T08:28:14;12.25;;;2.53;;
43160;SDS011;40968;52.342;5.528;2023-01-01T08:30:41;24.13;;;3.55;;
43160;SDS011;40968;52.342;5.528;2023-01-01T08:33:07;16.27;;;2.63;;
43160;SDS011;40968;52.342;5.528;2023-01-01T08:35:35;11.43;;;2.15;;
43160;SDS011;40968;52.342;5.528;2023-01-01T08:38:06;10.30;;;2.25;;
43160;SDS011;40968;52.342;5.528;2023-01-01T08:40:33;16.90;;;2.88;;
43160;SDS011;40968;52.342;5.528;2023-01-01T08:43:00;20.17;;;2.30;;
43160;SDS011;40968;52.342;5.528;2023-01-01T08:45:27;6.18;;;1.92;;
43160;SDS011;40968;52.342;5.528;2023-01-01T08:47:53;11.98;;;2.40;;
43160;SDS011;40968;52.342;5.528;2023-01-01T08:50:20;10.77;;;1.88;;
43160;SDS011;40968;52.342;5.528;2023-01-01T08:52:46;13.55;;;2.10;;
43160;SDS011;40968;52.342;5.528;2023-01-01T08:55:14;9.93;;;2.33;;
43160;SDS011;40968;52.342;5.528;2023-01-01T08:57:41;11.52;;;2.65;;
43160;SDS011;40968;52.342;5.528;2023-01-01T09:00:08;6.28;;;1.85;;
43160;SDS011;40968;52.342;5.528;2023-01-01T09:02:37;21.55;;;2.15;;
43160;SDS011;40968;52.342;5.528;2023-01-01T09:05:04;13.20;;;2.53;;
43160;SDS011;40968;52.342;5.528;2023-01-01T09:07:31;14.52;;;2.40;;
43160;SDS011;40968;52.342;5.528;2023-01-01T09:09:58;13.25;;;2.58;;
43160;SDS011;40968;52.342;5.528;2023-01-01T09:12:26;18.70;;;2.60;;
43160;SDS011;40968;52.342;5.528;2023-01-01T09:14:52;9.43;;;2.10;;
43160;SDS011;40968;52.342;5.528;2023-01-01T09:17:19;7.78;;;2.20;;
43160;SDS011;40968;52.342;5.528;2023-01-01T09:19:46;9.38;;;2.72;;
43160;SDS011;40968;52.342;5.528;2023-01-01T09:22:12;10.63;;;2.25;;
43160;SDS011;40968;52.342;5.528;2023-01-01T09:24:39;11.18;;;1.73;;
43160;SDS011;40968;52.342;5.528;2023-01-01T09:27:05;12.60;;;2.78;;
43160;SDS011;40968;52.342;5.528;2023-01-01T09:29:33;15.60;;;3.08;;
43160;SDS011;40968;52.342;5.528;2023-01-01T09:32:00;11.65;;;2.25;;
43160;SDS011;40968;52.342;5.528;2023-01-01T09:34:27;12.00;;;2.40;;
43160;SDS011;40968;52.342;5.528;2023-01-01T09:36:53;11.15;;;2.30;;
43160;SDS011;40968;52.342;5.528;2023-01-01T09:39:20;12.02;;;2.15;;
43160;SDS011;40968;52.342;5.528;2023-01-01T09:41:56;9.02;;;1.83;;
43160;SDS011;40968;52.342;5.528;2023-01-01T09:44:38;15.85;;;2.13;;
43160;SDS011;40968;52.342;5.528;2023-01-01T09:47:17;8.30;;;2.05;;
43160;SDS011;40968;52.342;5.528;2023-01-01T09:49:48;8.80;;;2.75;;
43160;SDS011;40968;52.342;5.528;2023-01-01T09:52:17;14.98;;;2.40;;
43160;SDS011;40968;52.342;5.528;2023-01-01T09:54:46;7.18;;;2.47;;
43160;SDS011;40968;52.342;5.528;2023-01-01T09:57:19;10.40;;;2.65;;
43160;SDS011;40968;52.342;5.528;2023-01-01T09:59:51;9.52;;;2.28;;
43160;SDS011;40968;52.342;5.528;2023-01-01T10:02:24;15.90;;;2.38;;
43160;SDS011;40968;52.342;5.528;2023-01-01T10:05:02;9.82;;;2.63;;
43160;SDS011;40968;52.342;5.528;2023-01-01T10:07:40;10.05;;;2.25;;
43160;SDS011;40968;52.342;5.528;2023-01-01T10:10:16;13.05;;;2.60;;
43160;SDS011;40968;52.342;5.528;2023-01-01T10:12:52;18.05;;;2.45;;
43160;SDS011;40968;52.342;5.528;2023-01-01T10:15:28;9.77;;;2.00;;
43160;SDS011;40968;52.342;5.528;2023-01-01T10:17:59;6.57;;;2.20;;
43160;SDS011;40968;52.342;5.528;2023-01-01T10:20:34;24.40;;;3.28;;
43160;SDS011;40968;52.342;5.528;2023-01-01T10:23:07;13.50;;;2.60;;
43160;SDS011;40968;52.342;5.528;2023-01-01T10:25:40;14.23;;;2.63;;
43160;SDS011;40968;52.342;5.528;2023-01-01T10:28:10;21.35;;;3.20;;
43160;SDS011;40968;52.342;5.528;2023-01-01T10:30:46;15.57;;;2.53;;
43160;SDS011;40968;52.342;5.528;2023-01-01T10:33:13;9.50;;;2.50;;
43160;SDS011;40968;52.342;5.528;2023-01-01T10:35:41;22.75;;;2.78;;
43160;SDS011;40968;52.342;5.528;2023-01-01T10:40:43;12.20;;;2.50;;
43160;SDS011;40968;52.342;5.528;2023-01-01T10:43:09;14.95;;;2.85;;
43160;SDS011;40968;52.342;5.528;2023-01-01T10:45:37;15.00;;;2.60;;
43160;SDS011;40968;52.342;5.528;2023-01-01T10:48:15;10.47;;;2.37;;
43160;SDS011;40968;52.342;5.528;2023-01-01T10:50:44;16.88;;;2.50;;
43160;SDS011;40968;52.342;5.528;2023-01-01T10:53:23;9.35;;;2.33;;
43160;SDS011;40968;52.342;5.528;2023-01-01T10:55:57;12.32;;;2.85;;
43160;SDS011;40968;52.342;5.528;2023-01-01T10:58:31;14.23;;;2.63;;
43160;SDS011;40968;52.342;5.528;2023-01-01T11:01:03;9.80;;;3.30;;
43160;SDS011;40968;52.342;5.528;2023-01-01T11:03:32;13.90;;;2.75;;
43160;SDS011;40968;52.342;5.528;2023-01-01T11:08:46;25.95;;;2.90;;
43160;SDS011;40968;52.342;5.528;2023-01-01T11:11:19;11.45;;;2.85;;
43160;SDS011;40968;52.342;5.528;2023-01-01T11:13:48;15.80;;;2.47;;
43160;SDS011;40968;52.342;5.528;2023-01-01T11:16:16;18.75;;;2.88;;
43160;SDS011;40968;52.342;5.528;2023-01-01T11:18:44;15.48;;;2.70;;
43160;SDS011;40968;52.342;5.528;2023-01-01T11:21:17;18.50;;;2.80;;
43160;SDS011;40968;52.342;5.528;2023-01-01T11:23:45;16.02;;;2.88;;
43160;SDS011;40968;52.342;5.528;2023-01-01T11:26:18;22.50;;;3.30;;
43160;SDS011;40968;52.342;5.528;2023-01-01T11:28:57;15.30;;;3.13;;
43160;SDS011;40968;52.342;5.528;2023-01-01T11:31:26;17.58;;;3.42;;
43160;SDS011;40968;52.342;5.528;2023-01-01T11:33:56;19.23;;;4.38;;
43160;SDS011;40968;52.342;5.528;2023-01-01T11:36:23;14.05;;;3.45;;
43160;SDS011;40968;52.342;5.528;2023-01-01T11:39:02;18.85;;;3.40;;
43160;SDS011;40968;52.342;5.528;2023-01-01T11:41:39;17.85;;;3.22;;
43160;SDS011;40968;52.342;5.528;2023-01-01T11:44:08;18.80;;;3.00;;
43160;SDS011;40968;52.342;5.528;2023-01-01T11:46:37;12.20;;;3.33;;
43160;SDS011;40968;52.342;5.528;2023-01-01T11:49:12;27.15;;;3.22;;
43160;SDS011;40968;52.342;5.528;2023-01-01T11:51:40;17.15;;;3.58;;
43160;SDS011;40968;52.342;5.528;2023-01-01T11:54:08;11.38;;;3.28;;
43160;SDS011;40968;52.342;5.528;2023-01-01T11:56:36;19.90;;;3.10;;
43160;SDS011;40968;52.342;5.528;2023-01-01T11:59:05;13.63;;;3.65;;
43160;SDS011;40968;52.342;5.528;2023-01-01T12:01:41;15.02;;;3.38;;
43160;SDS011;40968;52.342;5.528;2023-01-01T12:04:15;10.80;;;2.92;;
43160;SDS011;40968;52.342;5.528;2023-01-01T12:06:46;13.00;;;3.65;;
43160;SDS011;40968;52.342;5.528;2023-01-01T12:09:20;17.45;;;3.70;;
43160;SDS011;40968;52.342;5.528;2023-01-01T12:11:50;13.60;;;3.03;;
43160;SDS011;40968;52.342;5.528;2023-01-01T12:14:21;15.68;;;3.63;;
43160;SDS011;40968;52.342;5.528;2023-01-01T12:16:54;15.85;;;3.08;;
43160;SDS011;40968;52.342;5.528;2023-01-01T12:19:27;20.25;;;3.25;;
43160;SDS011;40968;52.342;5.528;2023-01-01T12:21:58;19.13;;;3.90;;
43160;SDS011;40968;52.342;5.528;2023-01-01T12:24:27;14.85;;;3.65;;
43160;SDS011;40968;52.342;5.528;2023-01-01T12:27:01;18.73;;;3.28;;
43160;SDS011;40968;52.342;5.528;2023-01-01T12:29:46;12.68;;;3.03;;
43160;SDS011;40968;52.342;5.528;2023-01-01T12:32:26;13.60;;;3.70;;
43160;SDS011;40968;52.342;5.528;2023-01-01T12:35:08;16.50;;;3.60;;
43160;SDS011;40968;52.342;5.528;2023-01-01T12:37:45;21.05;;;3.67;;
43160;SDS011;40968;52.342;5.528;2023-01-01T12:40:29;17.30;;;3.25;;
43160;SDS011;40968;52.342;5.528;2023-01-01T12:43:03;19.25;;;3.25;;
43160;SDS011;40968;52.342;5.528;2023-01-01T12:48:50;12.10;;;3.42;;
43160;SDS011;40968;52.342;5.528;2023-01-01T12:51:29;14.35;;;3.03;;
43160;SDS011;40968;52.342;5.528;2023-01-01T12:54:10;13.05;;;3.33;;
43160;SDS011;40968;52.342;5.528;2023-01-01T12:56:59;11.38;;;2.75;;
43160;SDS011;40968;52.342;5.528;2023-01-01T12:59:35;14.35;;;3.53;;
43160;SDS011;40968;52.342;5.528;2023-01-01T13:02:09;12.82;;;3.80;;
43160;SDS011;40968;52.342;5.528;2023-01-01T13:04:39;14.82;;;3.80;;
43160;SDS011;40968;52.342;5.528;2023-01-01T13:07:10;26.75;;;4.15;;
43160;SDS011;40968;52.342;5.528;2023-01-01T13:09:39;15.23;;;3.35;;
43160;SDS011;40968;52.342;5.528;2023-01-01T13:12:10;14.20;;;3.22;;
43160;SDS011;40968;52.342;5.528;2023-01-01T13:14:40;22.98;;;4.03;;
43160;SDS011;40968;52.342;5.528;2023-01-01T13:17:16;23.13;;;3.67;;
43160;SDS011;40968;52.342;5.528;2023-01-01T13:19:44;18.45;;;4.03;;
43160;SDS011;40968;52.342;5.528;2023-01-01T13:25:17;18.38;;;4.28;;
43160;SDS011;40968;52.342;5.528;2023-01-01T13:28:02;21.52;;;3.55;;
43160;SDS011;40968;52.342;5.528;2023-01-01T13:30:46;19.95;;;4.05;;
43160;SDS011;40968;52.342;5.528;2023-01-01T13:33:18;20.02;;;3.45;;
43160;SDS011;40968;52.342;5.528;2023-01-01T13:38:56;17.02;;;3.65;;
43160;SDS011;40968;52.342;5.528;2023-01-01T13:41:27;16.30;;;3.25;;
43160;SDS011;40968;52.342;5.528;2023-01-01T13:44:10;27.52;;;4.78;;
43160;SDS011;40968;52.342;5.528;2023-01-01T13:46:44;18.77;;;3.53;;
43160;SDS011;40968;52.342;5.528;2023-01-01T13:49:25;30.10;;;4.95;;
43160;SDS011;40968;52.342;5.528;2023-01-01T13:52:10;23.55;;;3.30;;
43160;SDS011;40968;52.342;5.528;2023-01-01T14:01:06;16.92;;;3.55;;
43160;SDS011;40968;52.342;5.528;2023-01-01T14:03:50;17.90;;;3.80;;
43160;SDS011;40968;52.342;5.528;2023-01-01T14:06:21;20.60;;;3.53;;
43160;SDS011;40968;52.342;5.528;2023-01-01T14:08:59;27.35;;;3.60;;
43160;SDS011;40968;52.342;5.528;2023-01-01T14:11:29;23.58;;;3.80;;
43160;SDS011;40968;52.342;5.528;2023-01-01T14:13:55;14.95;;;3.10;;
43160;SDS011;40968;52.342;5.528;2023-01-01T14:16:23;15.75;;;3.55;;
43160;SDS011;40968;52.342;5.528;2023-01-01T14:18:52;15.60;;;3.65;;
43160;SDS011;40968;52.342;5.528;2023-01-01T14:21:22;22.75;;;3.75;;
43160;SDS011;40968;52.342;5.528;2023-01-01T14:23:52;14.15;;;3.40;;
43160;SDS011;40968;52.342;5.528;2023-01-01T14:26:22;16.35;;;4.05;;
43160;SDS011;40968;52.342;5.528;2023-01-01T14:28:53;20.08;;;3.45;;
43160;SDS011;40968;52.342;5.528;2023-01-01T14:31:21;22.55;;;3.90;;
43160;SDS011;40968;52.342;5.528;2023-01-01T14:36:19;9.85;;;3.13;;
43160;SDS011;40968;52.342;5.528;2023-01-01T14:38:47;13.40;;;3.10;;
43160;SDS011;40968;52.342;5.528;2023-01-01T14:41:18;18.77;;;4.07;;
43160;SDS011;40968;52.342;5.528;2023-01-01T14:43:49;13.85;;;3.10;;
43160;SDS011;40968;52.342;5.528;2023-01-01T14:46:21;21.15;;;3.90;;
43160;SDS011;40968;52.342;5.528;2023-01-01T14:48:51;14.85;;;3.50;;
43160;SDS011;40968;52.342;5.528;2023-01-01T14:51:20;21.60;;;3.45;;
43160;SDS011;40968;52.342;5.528;2023-01-01T14:53:49;21.50;;;3.70;;
43160;SDS011;40968;52.342;5.528;2023-01-01T14:56:21;16.92;;;3.13;;
43160;SDS011;40968;52.342;5.528;2023-01-01T14:58:50;18.63;;;4.38;;
43160;SDS011;40968;52.342;5.528;2023-01-01T15:01:21;21.83;;;4.00;;
43160;SDS011;40968;52.342;5.528;2023-01-01T15:03:56;21.20;;;3.50;;
43160;SDS011;40968;52.342;5.528;2023-01-01T15:06:25;15.73;;;3.60;;
43160;SDS011;40968;52.342;5.528;2023-01-01T15:08:52;12.57;;;3.70;;
43160;SDS011;40968;52.342;5.528;2023-01-01T15:11:19;32.25;;;4.53;;
43160;SDS011;40968;52.342;5.528;2023-01-01T15:13:53;14.75;;;3.60;;
43160;SDS011;40968;52.342;5.528;2023-01-01T15:16:23;17.73;;;4.00;;
43160;SDS011;40968;52.342;5.528;2023-01-01T15:18:50;13.73;;;3.55;;
43160;SDS011;40968;52.342;5.528;2023-01-01T15:21:30;16.05;;;3.75;;